Hicks Airfield Weather

No METAR data is available for Hicks Airfield, and nearby Alliance Airport's METAR data is commonly used by area pilots. Weather infomation is also available on 126.925 mhz.

  • Current KAFW METAR
    (5.8nm NE) VFR
    Raw Text: KAFW 071753Z 06003KT 10SM SCT250 BKN300 11/02 A3030 RMK AO2 SLP264 T01060022 10111 20022 58012
    Wind: 60° @ 3kts
    Visibility: 10.0sm
    Clouds (AGL): SCT at 25000ft
    Temperature: 10.6°C
    Dew Point: 2.2°C
    Altimeter: 30.30 inHg
  • Current KAFW TAF
    (5.8nm NE)
    Raw Text: KAFW 071444Z 0715/0812 36004KT P6SM SCT250 FM071800 15004KT P6SM SCT250